Time;durP1;ratioP1;P1;durP2;ratioP2;P2;SDS_P1;SDS_P2;PMS_P1;PMS_P2;Temp;Humidity;BMP_temperature;BMP_pressure;BME280_temperature;BME280_humidity;BME280_pressure;Samples;Min_cycle;Max_cycle;Signal;HPM_P1;HPM_P2
2022/09/11 00:02:05;;;;;;;19.40;10.10;;;;;;;12.58;100.00;99606.42;104802;1273;74806;-70
2022/09/11 00:04:55;;;;;;;18.90;9.60;;;;;;;12.60;100.00;99608.51;104954;1273;67957;-70
2022/09/11 00:07:43;;;;;;;17.60;10.10;;;;;;;12.59;100.00;99604.70;104826;1273;74487;-70
2022/09/11 00:10:39;;;;;;;17.20;9.70;;;;;;;12.59;100.00;99601.65;105007;1273;59655;-71
2022/09/11 00:13:27;;;;;;;18.30;9.70;;;;;;;12.62;100.00;99603.25;104924;1273;60990;-71
2022/09/11 00:16:30;;;;;;;16.60;9.30;;;;;;;12.62;100.00;99603.53;104786;1273;73459;-71
2022/09/11 00:19:19;;;;;;;16.60;9.40;;;;;;;12.63;100.00;99604.31;104565;1274;68961;-70
2022/09/11 00:22:08;;;;;;;18.70;10.10;;;;;;;12.61;100.00;99599.34;104961;1273;73862;-70
2022/09/11 00:24:57;;;;;;;19.90;9.60;;;;;;;12.64;100.00;99600.38;104752;1273;61365;-71
2022/09/11 00:27:45;;;;;;;18.80;10.50;;;;;;;12.65;100.00;99598.86;104780;1273;60962;-71
2022/09/11 00:30:33;;;;;;;18.20;10.40;;;;;;;12.63;100.00;99594.92;105040;1273;73516;-71
2022/09/11 00:33:21;;;;;;;17.10;9.70;;;;;;;12.60;100.00;99595.15;104781;1273;69598;-70
2022/09/11 00:36:26;;;;;;;16.80;9.80;;;;;;;12.58;100.00;99590.88;105065;1273;74671;-71
2022/09/11 00:39:14;;;;;;;18.00;9.70;;;;;;;12.55;100.00;99594.71;104770;1273;60283;-71
2022/09/11 00:42:04;;;;;;;17.00;9.60;;;;;;;12.55;100.00;99594.43;104718;1273;60880;-70
2022/09/11 00:44:59;;;;;;;16.80;9.60;;;;;;;12.52;100.00;99593.23;104746;1275;75085;-68
2022/09/11 00:47:50;;;;;;;17.40;9.30;;;;;;;12.51;100.00;99589.28;104769;1273;68266;-71
2022/09/11 00:50:42;;;;;;;16.70;9.60;;;;;;;12.51;100.00;99588.72;104761;1274;71650;-72
2022/09/11 00:53:35;;;;;;;16.40;8.80;;;;;;;12.51;100.00;99584.29;104916;1275;61111;-72
2022/09/11 00:56:30;;;;;;;18.40;9.80;;;;;;;12.51;100.00;99584.81;105012;1274;60370;-70
2022/09/11 00:59:24;;;;;;;16.00;8.60;;;;;;;12.51;100.00;99581.44;105075;1273;74714;-70
2022/09/11 01:02:16;;;;;;;15.70;8.90;;;;;;;12.49;100.00;99575.23;104683;1277;68513;-70
2022/09/11 01:05:05;;;;;;;17.20;9.40;;;;;;;12.47;100.00;99577.38;103644;1273;1777228;-73
2022/09/11 01:07:55;;;;;;;16.90;9.00;;;;;;;12.48;100.00;99575.30;104977;1274;61524;-72
2022/09/11 01:11:34;;;;;;;17.00;8.80;;;;;;;12.47;100.00;99570.05;104954;1274;60322;-72
2022/09/11 01:14:51;;;;;;;18.80;9.70;;;;;;;12.47;100.00;99570.58;104819;1273;72024;-70
2022/09/11 01:18:04;;;;;;;19.30;8.90;;;;;;;12.47;100.00;99574.17;104820;1273;66504;-71
2022/09/11 01:21:29;;;;;;;19.20;11.00;;;;;;;12.46;100.00;99574.43;105180;1273;74464;-70
2022/09/11 01:24:40;;;;;;;16.60;9.10;;;;;;;12.43;100.00;99569.91;104785;1273;59776;-71
2022/09/11 01:27:49;;;;;;;17.80;10.00;;;;;;;12.43;100.00;99567.39;104771;1273;61001;-71
2022/09/11 01:30:46;;;;;;;16.40;8.70;;;;;;;12.44;100.00;99564.85;105146;1273;74802;-71
2022/09/11 01:33:55;;;;;;;16.60;8.70;;;;;;;12.44;100.00;99565.39;104677;1274;68562;-70
2022/09/11 01:36:52;;;;;;;17.40;9.30;;;;;;;12.45;100.00;99562.30;104688;1274;74500;-70
2022/09/11 01:39:48;;;;;;;16.30;8.70;;;;;;;12.45;100.00;99559.20;104868;1273;59763;-70
2022/09/11 01:42:42;;;;;;;16.20;8.60;;;;;;;12.47;100.00;99552.25;104808;1274;61902;-70
2022/09/11 01:45:32;;;;;;;18.30;9.30;;;;;;;12.49;100.00;99554.42;104748;1277;73314;-71
2022/09/11 01:48:28;;;;;;;14.30;8.40;;;;;;;12.50;100.00;99551.98;104640;1274;68523;-72
2022/09/11 01:51:25;;;;;;;15.10;8.60;;;;;;;12.50;100.00;99554.89;104487;1277;73529;-71
2022/09/11 01:54:18;;;;;;;18.90;9.00;;;;;;;12.47;100.00;99554.59;104852;1275;61310;-71
2022/09/11 01:57:12;;;;;;;16.60;8.90;;;;;;;12.47;100.00;99558.21;104852;1273;61048;-73
2022/09/11 02:00:06;;;;;;;18.10;9.30;;;;;;;12.47;100.00;99557.83;104747;1275;73309;-71
2022/09/11 02:03:16;;;;;;;16.20;8.40;;;;;;;12.48;100.00;99558.41;104994;1274;68608;-70
2022/09/11 02:06:09;;;;;;;16.10;8.80;;;;;;;12.48;100.00;99555.40;104757;1275;74750;-72
2022/09/11 02:09:08;;;;;;;15.40;8.70;;;;;;;12.49;100.00;99555.15;105027;1274;60230;-71
2022/09/11 02:12:01;;;;;;;14.60;7.80;;;;;;;12.49;100.00;99551.60;104671;1275;60491;-71
2022/09/11 02:14:52;;;;;;;14.60;8.20;;;;;;;12.48;100.00;99551.66;104651;1274;75204;-71
2022/09/11 02:18:08;;;;;;;15.10;8.60;;;;;;;12.50;100.00;99553.10;104887;1274;68360;-73
2022/09/11 02:20:56;;;;;;;16.50;8.80;;;;;;;12.51;100.00;99554.95;104952;1274;72961;-72
2022/09/11 02:23:44;;;;;;;15.60;8.50;;;;;;;12.52;100.00;99552.52;104902;1274;60184;-73
2022/09/11 02:26:41;;;;;;;16.10;8.50;;;;;;;12.51;100.00;99557.65;105183;1274;60477;-71
2022/09/11 02:29:30;;;;;;;15.40;8.30;;;;;;;12.49;100.00;99555.31;104906;1274;71968;-71
2022/09/11 02:32:21;;;;;;;14.40;8.20;;;;;;;12.48;100.00;99557.30;104707;1277;68568;-71
2022/09/11 02:35:10;;;;;;;18.40;8.90;;;;;;;12.44;100.00;99555.02;104775;1274;73461;-71
2022/09/11 02:38:32;;;;;;;15.30;8.50;;;;;;;12.41;100.00;99556.95;104715;1274;60238;-71
2022/09/11 02:41:32;;;;;;;20.40;9.70;;;;;;;12.34;100.00;99558.27;104756;1274;60907;-71
2022/09/11 02:44:39;;;;;;;14.70;8.60;;;;;;;12.31;100.00;99556.42;104841;1274;73941;-70
2022/09/11 02:47:39;;;;;;;18.80;9.10;;;;;;;12.28;100.00;99553.54;104647;1274;70290;-70
2022/09/11 02:50:39;;;;;;;15.30;8.90;;;;;;;12.26;100.00;99555.30;104757;1274;74429;-71
2022/09/11 02:53:34;;;;;;;17.40;9.30;;;;;;;12.23;100.00;99551.43;104691;1275;59787;-71
2022/09/11 02:56:49;;;;;;;17.30;9.40;;;;;;;12.23;100.00;99553.96;104753;1274;62061;-70
2022/09/11 02:59:59;;;;;;;17.20;9.30;;;;;;;12.22;100.00;99555.09;105053;1274;73738;-72
2022/09/11 03:02:48;;;;;;;17.30;9.90;;;;;;;12.23;100.00;99556.99;104860;1274;68663;-71
2022/09/11 03:05:36;;;;;;;17.80;9.60;;;;;;;12.24;100.00;99558.88;104938;1274;73966;-70
2022/09/11 03:08:24;;;;;;;18.50;9.20;;;;;;;12.24;100.00;99561.55;105051;1274;59739;-70
2022/09/11 03:11:16;;;;;;;18.00;10.50;;;;;;;12.23;100.00;99561.91;104687;1274;61848;-71
2022/09/11 03:14:05;;;;;;;18.70;10.10;;;;;;;12.22;100.00;99558.51;105022;1274;73289;-71
2022/09/11 03:16:55;;;;;;;19.50;10.20;;;;;;;12.22;100.00;99559.91;105104;1274;68157;-70
2022/09/11 03:19:44;;;;;;;18.80;10.90;;;;;;;12.22;100.00;99559.71;104774;1274;74435;-71
2022/09/11 03:22:32;;;;;;;16.60;9.40;;;;;;;12.21;100.00;99558.41;104695;1275;59878;-71
2022/09/11 03:25:20;;;;;;;20.00;10.20;;;;;;;12.21;100.00;99559.64;104948;1274;61071;-70
2022/09/11 03:28:08;;;;;;;16.90;9.00;;;;;;;12.22;100.00;99560.61;104775;1274;74699;-70
2022/09/11 03:30:56;;;;;;;18.20;10.20;;;;;;;12.21;100.00;99563.38;104976;1274;68055;-70
2022/09/11 03:33:45;;;;;;;17.60;10.10;;;;;;;12.19;100.00;99558.42;104971;1274;74566;-71
2022/09/11 03:36:33;;;;;;;17.30;9.00;;;;;;;12.18;100.00;99559.57;105031;1274;60863;-71
2022/09/11 03:39:21;;;;;;;17.60;9.80;;;;;;;12.17;100.00;99560.91;104703;1275;62154;-71
2022/09/11 03:42:11;;;;;;;19.80;9.40;;;;;;;12.14;100.00;99563.31;104765;1274;73253;-72
2022/09/11 03:44:59;;;;;;;21.20;8.90;;;;;;;12.11;100.00;99564.52;104419;1276;68579;-70
2022/09/11 03:47:48;;;;;;;16.60;9.10;;;;;;;12.09;100.00;99570.14;104762;1274;73412;-71
2022/09/11 03:50:35;;;;;;;18.00;9.60;;;;;;;12.09;100.00;99572.14;104863;1274;60154;-71
2022/09/11 03:53:25;;;;;;;17.50;9.20;;;;;;;12.08;100.00;99573.49;104807;1274;61027;-70
2022/09/11 03:56:13;;;;;;;18.00;9.40;;;;;;;12.08;100.00;99576.10;104901;1274;74741;-72
2022/09/11 03:59:05;;;;;;;19.50;10.00;;;;;;;12.09;100.00;99577.64;104780;1274;69982;-71
2022/09/11 04:01:54;;;;;;;18.00;9.70;;;;;;;12.09;100.00;99580.47;104787;1274;73697;-71
2022/09/11 04:04:43;;;;;;;19.50;9.40;;;;;;;12.10;100.00;99581.66;104849;1273;60130;-71
2022/09/11 04:07:33;;;;;;;17.30;9.70;;;;;;;12.09;100.00;99582.77;104706;1276;60799;-70
2022/09/11 04:10:21;;;;;;;18.90;10.40;;;;;;;12.08;100.00;99582.73;104751;1274;73047;-69
2022/09/11 04:13:10;;;;;;;16.20;9.50;;;;;;;12.07;100.00;99581.20;104735;1277;69415;-70
2022/09/11 04:16:13;;;;;;;19.70;9.70;;;;;;;12.08;100.00;99578.46;105068;1273;73576;-72
2022/09/11 04:19:02;;;;;;;16.90;8.50;;;;;;;12.07;100.00;99580.81;105063;1274;59664;-71
2022/09/11 04:21:51;;;;;;;14.00;7.60;;;;;;;12.08;100.00;99583.77;104868;1274;59995;-72
2022/09/11 04:24:40;;;;;;;17.30;7.90;;;;;;;12.08;100.00;99582.19;105114;1273;73319;-72
2022/09/11 04:27:28;;;;;;;13.30;7.10;;;;;;;12.07;100.00;99578.71;105305;1273;69496;-72
2022/09/11 04:30:17;;;;;;;14.40;7.70;;;;;;;12.06;100.00;99582.02;104841;1274;74438;-72
2022/09/11 04:33:05;;;;;;;11.50;6.70;;;;;;;12.06;100.00;99585.27;104839;1274;61363;-71
2022/09/11 04:35:53;;;;;;;14.00;7.30;;;;;;;12.05;100.00;99585.67;104856;1273;60171;-71
2022/09/11 04:38:41;;;;;;;14.80;7.90;;;;;;;12.04;100.00;99580.95;104836;1273;73691;-70
2022/09/11 04:41:30;;;;;;;16.80;10.10;;;;;;;12.04;100.00;99585.96;104852;1274;69432;-71
2022/09/11 04:44:20;;;;;;;16.20;9.40;;;;;;;12.02;100.00;99582.73;104946;1273;74374;-72
2022/09/11 04:47:08;;;;;;;16.80;8.10;;;;;;;12.03;100.00;99582.14;105187;1273;60946;-73
2022/09/11 04:49:56;;;;;;;13.60;7.10;;;;;;;12.03;100.00;99588.74;105174;1273;62083;-72
2022/09/11 04:52:44;;;;;;;11.60;6.30;;;;;;;12.01;100.00;99586.01;104793;1274;75001;-72
2022/09/11 04:55:32;;;;;;;12.50;6.30;;;;;;;12.00;100.00;99587.65;105037;1274;66886;-72
2022/09/11 04:58:21;;;;;;;13.20;6.40;;;;;;;11.99;100.00;99588.52;105107;1273;73248;-71
2022/09/11 05:01:14;;;;;;;12.90;6.40;;;;;;;12.00;100.00;99592.12;104815;1274;59724;-71
2022/09/11 05:04:03;;;;;;;13.00;6.70;;;;;;;12.01;100.00;99588.73;104676;1273;61651;-71
2022/09/11 05:06:51;;;;;;;12.60;6.50;;;;;;;12.02;100.00;99592.39;104622;1277;74896;-70
2022/09/11 05:09:39;;;;;;;15.90;7.30;;;;;;;12.04;100.00;99589.85;104793;1273;68122;-71
2022/09/11 05:12:30;;;;;;;12.50;6.50;;;;;;;12.06;100.00;99589.10;104848;1273;74650;-71
2022/09/11 05:15:18;;;;;;;15.50;7.00;;;;;;;12.08;100.00;99591.09;104842;1274;59710;-70
2022/09/11 05:23:18;;;;;;;15.50;7.00;;;;;;;-128.00;-1.00;-1.00;2;448680986;448680986;-68
2022/09/11 05:29:51;;;;;;;15.50;7.00;;;;;;;-128.00;-1.00;-1.00;2;363146515;363146515;-70
2022/09/11 05:40:02;;;;;;;15.50;7.00;;;;;;;-128.00;-1.00;-1.00;2;579228975;579228975;-70
2022/09/11 05:49:18;;;;;;;15.50;7.00;;;;;;;-128.00;-1.00;-1.00;2;525210821;525210821;-70
2022/09/11 05:59:46;;;;;;;15.50;7.00;;;;;;;-128.00;-1.00;-1.00;2;592739243;592739243;-72
2022/09/11 06:07:45;;;;;;;15.50;7.00;;;;;;;-128.00;-1.00;-1.00;2;448677291;448677291;-72
2022/09/11 06:14:20;;;;;;;15.50;7.00;;;;;;;-128.00;-1.00;-1.00;2;363144219;363144219;-71
2022/09/11 06:24:35;;;;;;;15.50;7.00;;;;;;;-128.00;-1.00;-1.00;2;583727608;583727608;-73
2022/09/11 06:33:51;;;;;;;15.50;7.00;;;;;;;-128.00;-1.00;-1.00;2;525210644;525210644;-72
2022/09/11 06:44:10;;;;;;;15.50;7.00;;;;;;;-128.00;-1.00;-1.00;2;588232571;588232571;-71
2022/09/11 06:52:12;;;;;;;15.50;7.00;;;;;;;-128.00;-1.00;-1.00;2;448681004;448681004;-71
2022/09/11 06:58:55;;;;;;;15.50;7.00;;;;;;;-128.00;-1.00;-1.00;2;367645541;367645541;-71
2022/09/11 07:09:05;;;;;;;15.50;7.00;;;;;;;-128.00;-1.00;-1.00;2;579235103;579235103;-71
2022/09/11 07:18:35;;;;;;;15.50;7.00;;;;;;;-128.00;-1.00;-1.00;2;529708179;529708179;-72
2022/09/11 07:29:04;;;;;;;15.50;7.00;;;;;;;-128.00;-1.00;-1.00;2;592726070;592726070;-72
2022/09/11 07:37:00;;;;;;;15.50;7.00;;;;;;;-128.00;-1.00;-1.00;2;444174771;444174771;-72
2022/09/11 07:43:35;;;;;;;15.50;7.00;;;;;;;-128.00;-1.00;-1.00;2;363145106;363145106;-72
2022/09/11 07:53:53;;;;;;;15.50;7.00;;;;;;;-128.00;-1.00;-1.00;2;583725692;583725692;-72
2022/09/11 08:03:19;;;;;;;15.50;7.00;;;;;;;-128.00;-1.00;-1.00;2;529715514;529715514;-72
2022/09/11 08:13:52;;;;;;;15.50;7.00;;;;;;;-128.00;-1.00;-1.00;2;592732572;592732572;-73
2022/09/11 08:21:52;;;;;;;15.50;7.00;;;;;;;-128.00;-1.00;-1.00;2;448674523;448674523;-72
2022/09/11 08:28:26;;;;;;;15.50;7.00;;;;;;;-128.00;-1.00;-1.00;2;363146095;363146095;-74
2022/09/11 08:38:37;;;;;;;15.50;7.00;;;;;;;-128.00;-1.00;-1.00;2;579231593;579231593;-71
2022/09/11 08:48:00;;;;;;;15.50;7.00;;;;;;;-128.00;-1.00;-1.00;2;525210937;525210937;-74
2022/09/11 08:58:45;;;;;;;15.50;7.00;;;;;;;-128.00;-1.00;-1.00;2;592728771;592728771;-75
2022/09/11 09:07:04;;;;;;;15.50;7.00;;;;;;;-128.00;-1.00;-1.00;2;448675927;448675927;-75
2022/09/11 09:14:14;;;;;;;15.50;7.00;;;;;;;-128.00;-1.00;-1.00;2;367651822;367651822;-75
2022/09/11 09:24:35;;;;;;;15.50;7.00;;;;;;;-128.00;-1.00;-1.00;2;583731880;583731880;-75
2022/09/11 09:34:05;;;;;;;15.50;7.00;;;;;;;-128.00;-1.00;-1.00;2;529712916;529712916;-77
2022/09/11 09:44:49;;;;;;;15.50;7.00;;;;;;;-128.00;-1.00;-1.00;2;592734321;592734321;-74
2022/09/11 09:52:56;;;;;;;15.50;7.00;;;;;;;-128.00;-1.00;-1.00;2;448679833;448679833;-75
2022/09/11 09:59:39;;;;;;;15.50;7.00;;;;;;;-128.00;-1.00;-1.00;2;367648533;367648533;-74
2022/09/11 10:10:02;;;;;;;15.50;7.00;;;;;;;-128.00;-1.00;-1.00;2;583728641;583728641;-74
2022/09/11 10:19:33;;;;;;;15.50;7.00;;;;;;;-128.00;-1.00;-1.00;2;529702309;529702309;-74
2022/09/11 10:29:57;;;;;;;15.50;7.00;;;;;;;-128.00;-1.00;-1.00;2;592729218;592729218;-73
2022/09/11 10:38:11;;;;;;;15.50;7.00;;;;;;;-128.00;-1.00;-1.00;2;448677147;448677147;-74
2022/09/11 10:44:52;;;;;;;15.50;7.00;;;;;;;-128.00;-1.00;-1.00;2;367641910;367641910;-75
2022/09/11 10:55:14;;;;;;;15.50;7.00;;;;;;;-128.00;-1.00;-1.00;2;583722601;583722601;-74
2022/09/11 11:04:36;;;;;;;15.50;7.00;;;;;;;-128.00;-1.00;-1.00;2;529706285;529706285;-75
2022/09/11 11:15:39;;;;;;;15.50;7.00;;;;;;;-128.00;-1.00;-1.00;2;592736366;592736366;-74
2022/09/11 11:22:20;;;;;;;15.50;7.00;;;;;;;-57.96;49.50;49795.99;2;357819918;357819918;-75
2022/09/11 11:25:42;;;;;;;6.00;1.70;;;;;;;26.87;29.23;99593.30;104616;1279;59795;-71
2022/09/11 11:28:57;;;;;;;7.90;1.50;;;;;;;26.98;29.53;99597.30;104678;1279;61809;-75
2022/09/11 11:32:05;;;;;;;5.40;1.60;;;;;;;27.33;29.65;99593.86;104740;1279;73577;-74
2022/09/11 11:35:32;;;;;;;6.00;1.50;;;;;;;27.44;29.01;99596.42;104731;1279;68057;-75
2022/09/11 11:39:13;;;;;;;6.80;1.30;;;;;;;27.79;29.36;99596.60;104379;1279;73611;-73
2022/09/11 11:42:42;;;;;;;7.90;1.40;;;;;;;27.63;28.63;99592.58;104900;1279;59676;-74
2022/09/11 11:45:43;;;;;;;8.10;1.40;;;;;;;27.05;29.35;99596.03;104586;1279;60406;-76
2022/09/11 11:48:52;;;;;;;7.00;1.60;;;;;;;25.97;30.76;99604.55;104412;1279;73203;-73
2022/09/11 11:52:04;;;;;;;6.40;1.50;;;;;;;24.94;31.95;99604.20;104283;1282;68626;-75
2022/09/11 11:55:19;;;;;;;5.70;1.70;;;;;;;23.95;33.53;99602.14;104658;1276;72942;-72
2022/09/11 11:58:29;;;;;;;6.80;1.70;;;;;;;23.21;35.06;99602.70;104789;1276;59862;-73
2022/09/11 12:01:33;;;;;;;6.30;1.50;;;;;;;22.35;36.51;99601.64;104842;1276;59804;-74
2022/09/11 12:04:54;;;;;;;6.30;1.60;;;;;;;21.71;38.23;99599.80;104623;1276;74974;-75
2022/09/11 12:07:45;;;;;;;6.50;1.40;;;;;;;21.95;38.38;99603.17;104887;1278;69114;-75
2022/09/11 12:10:38;;;;;;;7.00;2.00;;;;;;;21.57;38.43;99602.75;104696;1279;74624;-74
2022/09/11 12:13:32;;;;;;;8.70;1.50;;;;;;;21.41;39.50;99603.63;104843;1276;59661;-74
2022/09/11 12:16:32;;;;;;;5.70;1.60;;;;;;;21.48;40.17;99603.86;104561;1276;60803;-75
2022/09/11 12:19:24;;;;;;;7.00;1.60;;;;;;;21.50;39.89;99606.23;104758;1276;73028;-73
2022/09/11 12:22:32;;;;;;;9.60;1.70;;;;;;;21.29;39.51;99607.48;104721;1274;69570;-73
2022/09/11 12:25:19;;;;;;;6.60;1.80;;;;;;;21.01;40.42;99608.11;105061;1273;72313;-74
2022/09/11 12:28:21;;;;;;;8.70;1.60;;;;;;;20.91;40.73;99608.30;105039;1273;59784;-72
2022/09/11 12:31:17;;;;;;;6.20;1.60;;;;;;;20.66;40.94;99600.49;104898;1273;60895;-74
2022/09/11 12:34:16;;;;;;;6.20;1.70;;;;;;;20.61;41.54;99609.34;104911;1274;70904;-73
2022/09/11 12:37:13;;;;;;;8.90;1.90;;;;;;;20.40;42.17;99609.92;105067;1274;66861;-74
2022/09/11 12:40:51;;;;;;;7.00;1.80;;;;;;;20.16;42.32;99606.75;105095;1273;72844;-72
2022/09/11 12:43:42;;;;;;;7.60;1.80;;;;;;;20.01;43.17;99604.28;105077;1273;59789;-75
2022/09/11 12:46:30;;;;;;;7.70;1.70;;;;;;;19.87;43.40;99604.02;104926;1273;62274;-74
2022/09/11 12:49:21;;;;;;;9.70;2.00;;;;;;;19.58;43.95;99610.41;105091;1273;72968;-74
2022/09/11 12:52:25;;;;;;;8.80;2.10;;;;;;;19.27;44.80;99612.23;105073;1273;68470;-75
2022/09/11 12:56:07;;;;;;;9.00;1.70;;;;;;;18.96;45.62;99613.68;101900;1310;601381;-75
2022/09/11 12:59:06;;;;;;;10.80;2.10;;;;;;;18.70;46.61;99615.87;104951;1274;59285;-74
2022/09/11 13:01:56;;;;;;;5.40;1.80;;;;;;;18.36;47.37;99620.31;105097;1274;60527;-73
2022/09/11 13:04:47;;;;;;;6.60;2.00;;;;;;;18.10;48.31;99625.73;105119;1274;70714;-74
2022/09/11 13:07:49;;;;;;;7.00;2.10;;;;;;;17.88;49.00;99623.23;104974;1274;69340;-72
2022/09/11 13:10:38;;;;;;;5.90;2.10;;;;;;;17.58;49.46;99622.09;104274;1271;1366388;-71
2022/09/11 13:13:45;;;;;;;8.10;2.00;;;;;;;17.32;50.35;99626.64;105164;1271;59486;-73
2022/09/11 13:16:35;;;;;;;6.60;2.10;;;;;;;17.20;51.07;99624.04;105107;1271;59386;-73
2022/09/11 13:19:34;;;;;;;6.50;1.90;;;;;;;17.14;51.81;99622.60;104988;1271;70832;-73
2022/09/11 13:22:30;;;;;;;6.10;2.10;;;;;;;17.09;52.31;99621.24;104882;1271;67944;-72
2022/09/11 13:25:26;;;;;;;5.30;1.90;;;;;;;17.03;52.04;99614.90;104894;1271;72647;-72
2022/09/11 13:28:15;;;;;;;6.50;2.00;;;;;;;17.05;52.45;99620.08;104938;1271;59303;-74
2022/09/11 13:31:20;;;;;;;7.00;2.00;;;;;;;17.00;52.50;99620.32;105153;1271;62084;-72
2022/09/11 13:34:14;;;;;;;7.10;2.00;;;;;;;16.97;52.65;99618.16;105153;1273;69634;-72
2022/09/11 13:37:14;;;;;;;6.20;1.80;;;;;;;17.03;52.91;99619.37;104860;1274;67906;-75
2022/09/11 13:40:06;;;;;;;7.70;1.90;;;;;;;17.16;52.38;99616.61;105083;1274;72612;-74
2022/09/11 13:43:00;;;;;;;7.80;1.70;;;;;;;17.37;52.45;99618.96;104979;1274;59301;-75
2022/09/11 13:46:07;;;;;;;7.20;1.80;;;;;;;17.55;51.86;99622.65;104963;1272;59301;-76
2022/09/11 13:49:26;;;;;;;6.20;1.90;;;;;;;17.69;50.94;99620.83;105221;1271;70445;-73
2022/09/11 13:52:20;;;;;;;6.40;1.80;;;;;;;17.87;50.29;99617.49;105015;1271;68431;-73
2022/09/11 13:55:20;;;;;;;7.20;2.00;;;;;;;17.93;49.55;99623.05;105229;1271;72091;-72
2022/09/11 13:58:24;;;;;;;6.20;1.80;;;;;;;18.01;49.60;99621.05;105141;1271;59403;-74
2022/09/11 14:01:18;;;;;;;8.50;2.00;;;;;;;17.93;48.89;99620.84;105281;1271;60562;-73
2022/09/11 14:04:10;;;;;;;6.50;1.90;;;;;;;17.89;48.66;99625.29;105355;1271;72061;-75
2022/09/11 14:06:58;;;;;;;6.80;1.80;;;;;;;17.78;48.67;99625.38;105026;1271;66965;-71
2022/09/11 14:10:00;;;;;;;8.40;2.20;;;;;;;17.73;48.86;99626.23;105022;1271;74589;-72
2022/09/11 14:12:56;;;;;;;6.30;1.70;;;;;;;17.60;49.21;99633.96;105036;1271;59736;-75
2022/09/11 14:16:22;;;;;;;6.90;1.80;;;;;;;17.52;49.69;99634.09;105329;1271;59394;-74
2022/09/11 14:19:35;;;;;;;6.30;2.00;;;;;;;17.36;50.37;99634.77;105046;1271;72978;-73
2022/09/11 14:22:31;;;;;;;7.20;2.10;;;;;;;17.29;50.66;99636.46;105128;1271;68154;-74
2022/09/11 14:25:22;;;;;;;7.20;1.60;;;;;;;17.28;50.77;99632.16;105378;1271;74448;-72
2022/09/11 14:28:40;;;;;;;6.90;1.80;;;;;;;17.24;50.54;99634.90;105366;1271;59336;-74
2022/09/11 14:31:37;;;;;;;7.60;1.60;;;;;;;17.29;51.05;99635.45;105290;1271;62133;-73
2022/09/11 14:34:28;;;;;;;11.20;2.10;;;;;;;17.34;50.95;99637.39;105086;1271;70132;-71
2022/09/11 14:37:16;;;;;;;6.40;2.00;;;;;;;17.41;50.75;99638.61;105315;1271;67614;-73
2022/09/11 14:40:13;;;;;;;7.20;1.80;;;;;;;17.44;50.72;99639.88;105057;1271;71590;-72
2022/09/11 14:43:03;;;;;;;7.50;1.90;;;;;;;17.40;50.75;99635.98;105065;1271;59237;-74
2022/09/11 14:45:53;;;;;;;6.10;1.70;;;;;;;17.44;51.23;99642.02;105052;1271;62205;-72
2022/09/11 14:48:42;;;;;;;6.70;1.90;;;;;;;17.48;51.05;99642.42;105012;1271;72749;-74
2022/09/11 14:51:31;;;;;;;6.20;1.90;;;;;;;17.49;51.34;99642.71;105025;1271;70036;-73
2022/09/11 14:54:21;;;;;;;6.50;2.20;;;;;;;17.44;51.45;99644.95;105420;1271;72750;-73
2022/09/11 14:57:16;;;;;;;8.10;2.00;;;;;;;17.34;51.81;99644.77;104971;1271;59282;-73
2022/09/11 15:00:11;;;;;;;10.00;1.80;;;;;;;17.31;51.92;99644.87;105047;1271;61288;-75
2022/09/11 15:02:59;;;;;;;7.00;1.70;;;;;;;17.21;52.54;99641.67;105439;1271;73067;-73
2022/09/11 15:05:54;;;;;;;7.90;2.30;;;;;;;17.09;52.98;99645.96;105057;1272;68399;-73
2022/09/11 15:08:42;;;;;;;7.30;2.00;;;;;;;16.82;53.95;99645.49;105168;1274;71608;-72
2022/09/11 15:11:32;;;;;;;9.20;2.00;;;;;;;16.63;54.96;99653.13;105433;1274;59584;-72
2022/09/11 15:14:28;;;;;;;6.20;2.00;;;;;;;16.41;55.97;99655.27;105047;1274;60280;-73
2022/09/11 15:17:36;;;;;;;7.60;2.00;;;;;;;16.22;56.89;99654.92;105134;1274;71615;-73
2022/09/11 15:20:25;;;;;;;6.10;1.80;;;;;;;16.02;57.46;99656.47;105000;1274;66127;-73
2022/09/11 15:23:15;;;;;;;6.40;1.90;;;;;;;15.96;58.09;99654.75;104869;1273;72887;-73
2022/09/11 15:26:06;;;;;;;7.20;1.80;;;;;;;15.85;58.82;99655.26;104966;1274;59387;-75
2022/09/11 15:28:54;;;;;;;8.30;2.40;;;;;;;15.74;58.94;99659.99;104959;1274;59457;-74
2022/09/11 15:31:42;;;;;;;8.10;2.40;;;;;;;15.67;59.39;99661.95;105003;1274;69746;-75
2022/09/11 15:34:31;;;;;;;7.20;2.10;;;;;;;15.61;59.96;99665.73;105223;1272;68792;-75
2022/09/11 15:37:20;;;;;;;7.90;2.10;;;;;;;15.50;60.14;99664.95;105149;1274;73458;-76
2022/09/11 15:40:09;;;;;;;7.50;2.20;;;;;;;15.37;60.14;99666.81;104953;1274;59296;-76
2022/09/11 15:42:57;;;;;;;7.40;2.00;;;;;;;15.26;60.33;99665.11;104978;1274;60430;-76
2022/09/11 15:45:45;;;;;;;5.80;2.10;;;;;;;15.17;60.55;99671.23;104944;1274;71600;-76
2022/09/11 15:48:33;;;;;;;7.50;2.10;;;;;;;15.10;60.88;99669.61;105035;1274;67889;-75
2022/09/11 15:51:22;;;;;;;6.70;2.00;;;;;;;15.03;61.36;99671.38;105004;1274;72907;-76
2022/09/11 15:54:11;;;;;;;6.20;2.20;;;;;;;14.95;62.02;99671.52;104977;1274;59230;-77
2022/09/11 15:56:59;;;;;;;7.00;2.00;;;;;;;14.87;62.48;99672.14;105117;1272;60288;-75
2022/09/11 15:59:48;;;;;;;9.00;2.80;;;;;;;14.79;63.26;99676.53;105194;1273;71497;-75
2022/09/11 16:02:39;;;;;;;7.20;2.20;;;;;;;14.69;63.35;99677.88;105037;1274;66880;-74
2022/09/11 16:05:28;;;;;;;5.90;2.00;;;;;;;14.57;63.73;99684.03;104982;1271;74535;-75
2022/09/11 16:08:15;;;;;;;5.80;2.10;;;;;;;14.44;64.19;99685.66;105053;1271;59262;-76
2022/09/11 16:11:05;;;;;;;7.30;2.40;;;;;;;14.31;64.63;99685.00;104866;1271;59471;-76
2022/09/11 16:13:53;;;;;;;7.00;2.10;;;;;;;14.20;64.98;99688.39;105242;1270;70609;-75
2022/09/11 16:16:41;;;;;;;8.70;2.00;;;;;;;14.14;65.38;99687.27;105292;1271;68098;-77
2022/09/11 16:19:30;;;;;;;7.10;2.30;;;;;;;14.07;65.61;99688.42;105182;1271;72698;-75
2022/09/11 16:22:18;;;;;;;6.70;2.10;;;;;;;13.99;66.21;99688.67;105127;1271;59382;-75
2022/09/11 16:25:07;;;;;;;7.40;2.10;;;;;;;13.88;66.28;99687.11;105191;1271;60653;-76
2022/09/11 16:27:59;;;;;;;6.50;2.10;;;;;;;13.79;66.31;99686.76;105139;1271;71523;-76
2022/09/11 16:30:56;;;;;;;5.70;1.90;;;;;;;13.72;66.67;99691.10;105370;1271;69099;-75
2022/09/11 16:33:48;;;;;;;7.60;2.00;;;;;;;13.64;66.69;99685.63;105320;1271;71588;-75
2022/09/11 16:36:41;;;;;;;8.60;2.20;;;;;;;13.56;67.37;99683.92;105166;1271;59294;-76
2022/09/11 16:39:32;;;;;;;6.50;2.30;;;;;;;13.48;67.41;99682.39;105091;1271;60827;-77
2022/09/11 16:42:20;;;;;;;5.70;1.90;;;;;;;13.41;67.39;99682.23;105215;1271;73147;-76
2022/09/11 16:45:09;;;;;;;7.80;2.20;;;;;;;13.34;67.98;99680.56;105056;1271;70044;-74
2022/09/11 16:47:59;;;;;;;7.50;2.20;;;;;;;13.25;68.19;99674.20;105058;1271;73159;-76
2022/09/11 16:50:52;;;;;;;6.70;2.20;;;;;;;13.18;68.78;99674.52;104977;1271;59905;-76
2022/09/11 16:53:41;;;;;;;7.20;2.40;;;;;;;13.11;68.90;99678.38;105072;1271;61965;-76
2022/09/11 16:56:30;;;;;;;9.60;2.20;;;;;;;13.05;69.37;99682.66;104988;1271;72977;-74
2022/09/11 16:59:18;;;;;;;6.50;2.10;;;;;;;12.98;69.47;99682.60;104995;1271;67046;-75
2022/09/11 17:02:08;;;;;;;8.80;2.90;;;;;;;12.91;69.80;99685.37;105000;1271;72509;-75
2022/09/11 17:04:56;;;;;;;10.90;4.60;;;;;;;12.83;70.19;99686.88;105303;1271;59291;-75
2022/09/11 17:07:44;;;;;;;23.00;9.60;;;;;;;12.74;70.68;99689.66;105026;1270;60929;-76
2022/09/11 17:10:34;;;;;;;50.80;15.90;;;;;;;12.65;70.93;99685.83;105289;1271;72537;-76
2022/09/11 17:13:22;;;;;;;37.20;12.30;;;;;;;12.57;71.34;99686.76;105048;1271;69387;-75
2022/09/11 17:16:19;;;;;;;25.00;10.00;;;;;;;12.50;71.90;99687.05;104983;1271;72760;-76
2022/09/11 17:19:09;;;;;;;15.00;6.00;;;;;;;12.44;72.33;99687.44;105064;1271;59324;-76
2022/09/11 17:21:58;;;;;;;13.80;4.50;;;;;;;12.38;72.91;99694.38;104979;1271;60231;-76
2022/09/11 17:24:45;;;;;;;10.10;3.30;;;;;;;12.31;73.24;99696.27;105053;1271;72492;-75
2022/09/11 17:27:35;;;;;;;8.60;3.60;;;;;;;12.24;73.41;99697.23;105429;1270;69129;-76